createdAt,value
2022-10-19T00:02:22.068Z,5.55
2022-10-19T00:04:48.598Z,5.35
2022-10-19T00:07:39.899Z,5.05
2022-10-19T00:10:06.729Z,4.82
2022-10-19T00:12:33.408Z,3.83
2022-10-19T00:15:00.264Z,4.22
2022-10-19T00:17:26.774Z,6.93
2022-10-19T00:19:53.321Z,4.78
2022-10-19T00:22:19.809Z,7.75
2022-10-19T00:24:46.749Z,7.28
2022-10-19T00:27:13.411Z,3.92
2022-10-19T00:29:40.010Z,3.83
2022-10-19T00:32:06.546Z,5.38
2022-10-19T00:34:33.063Z,4.15
2022-10-19T00:36:59.624Z,3.08
2022-10-19T00:39:26.103Z,1.77
2022-10-19T00:41:52.674Z,3.85
2022-10-19T00:44:19.106Z,3.78
2022-10-19T00:46:50.535Z,5.53
2022-10-19T00:49:23.663Z,3.28
2022-10-19T00:52:01.437Z,3.65
2022-10-19T00:54:28.503Z,5.10
2022-10-19T00:56:57.938Z,6.78
2022-10-19T00:59:26.600Z,5.68
2022-10-19T01:01:54.334Z,10.52
2022-10-19T01:04:23.496Z,4.97
2022-10-19T01:09:17.710Z,4.60
2022-10-19T01:12:15.132Z,8.27
2022-10-19T01:14:44.599Z,6.35
2022-10-19T01:17:44.849Z,4.13
2022-10-19T01:20:48.873Z,8.40
2022-10-19T01:23:31.487Z,3.95
2022-10-19T01:26:07.167Z,5.72
2022-10-19T01:29:01.814Z,12.45
2022-10-19T01:31:46.864Z,3.60
2022-10-19T01:34:15.323Z,5.47
2022-10-19T01:36:47.973Z,4.70
2022-10-19T01:39:45.259Z,9.50
2022-10-19T01:42:33.236Z,5.50
2022-10-19T01:45:07.897Z,6.85
2022-10-19T01:48:08.315Z,4.45
2022-10-19T01:50:45.727Z,5.32
2022-10-19T01:53:14.391Z,4.53
2022-10-19T01:55:44.627Z,4.80
2022-10-19T01:58:16.542Z,7.95
2022-10-19T02:00:46.278Z,4.72
2022-10-19T02:03:14.272Z,4.35
2022-10-19T02:05:42.139Z,6.45
2022-10-19T02:08:14.986Z,6.03
2022-10-19T02:10:44.434Z,5.38
2022-10-19T02:13:13.901Z,8.25
2022-10-19T02:15:45.676Z,7.50
2022-10-19T02:18:19.810Z,5.47
2022-10-19T02:20:46.742Z,5.50
2022-10-19T02:23:18.668Z,7.72
2022-10-19T02:25:45.189Z,9.40
2022-10-19T02:28:11.946Z,4.18
2022-10-19T02:30:38.545Z,3.85
2022-10-19T02:33:05.282Z,6.63
2022-10-19T02:35:31.784Z,7.72
2022-10-19T02:38:00.974Z,8.90
2022-10-19T02:40:29.820Z,8.00
2022-10-19T02:43:00.409Z,6.18
2022-10-19T02:45:35.203Z,3.67
2022-10-19T02:48:13.636Z,3.17
2022-10-19T02:50:44.277Z,4.25
2022-10-19T02:53:11.033Z,3.17
2022-10-19T02:55:37.676Z,3.58
2022-10-19T02:58:04.317Z,8.13
2022-10-19T03:00:30.809Z,8.80
2022-10-19T03:02:57.345Z,6.82
2022-10-19T03:05:24.340Z,5.20
2022-10-19T03:07:51.078Z,8.65
2022-10-19T03:10:18.054Z,3.85
2022-10-19T03:12:45.038Z,3.20
2022-10-19T03:15:18.894Z,3.45
2022-10-19T03:17:48.751Z,4.78
2022-10-19T03:20:15.346Z,4.32
2022-10-19T03:22:42.210Z,5.90
2022-10-19T03:25:09.519Z,6.20
2022-10-19T03:27:36.668Z,3.80
2022-10-19T03:30:03.923Z,5.22
2022-10-19T03:32:30.420Z,6.22
2022-10-19T03:34:56.918Z,7.53
2022-10-19T03:37:23.643Z,4.57
2022-10-19T03:39:53.106Z,5.32
2022-10-19T03:42:20.383Z,7.07
2022-10-19T03:44:47.582Z,5.32
2022-10-19T03:47:14.249Z,5.93
2022-10-19T03:49:41.134Z,6.70
2022-10-19T03:52:09.954Z,4.15
2022-10-19T03:54:36.702Z,3.15
2022-10-19T03:57:03.309Z,4.93
2022-10-19T03:59:30.048Z,6.03
2022-10-19T04:01:56.581Z,3.80
2022-10-19T04:04:23.044Z,4.10
2022-10-19T04:06:50.474Z,4.15
2022-10-19T04:09:19.406Z,7.25
2022-10-19T04:11:46.090Z,9.88
2022-10-19T04:14:19.334Z,4.90
2022-10-19T04:16:53.872Z,3.55
2022-10-19T04:19:20.662Z,6.65
2022-10-19T04:21:49.359Z,9.05
2022-10-19T04:24:19.597Z,8.18
2022-10-19T04:26:49.440Z,5.25
2022-10-19T04:29:19.123Z,5.70
2022-10-19T04:31:50.562Z,5.47
2022-10-19T04:34:18.442Z,7.07
2022-10-19T04:36:49.371Z,6.93
2022-10-19T04:39:16.188Z,6.20
2022-10-19T04:41:42.733Z,3.90
2022-10-19T04:44:09.672Z,7.93
2022-10-19T04:46:37.324Z,6.85
2022-10-19T04:49:06.212Z,5.25
2022-10-19T04:51:32.832Z,4.72
2022-10-19T04:54:00.343Z,4.40
2022-10-19T04:56:29.633Z,5.25
2022-10-19T04:59:00.867Z,13.93
2022-10-19T05:01:30.928Z,8.95
2022-10-19T05:04:02.486Z,5.00
2022-10-19T05:06:30.876Z,3.17
2022-10-19T05:08:58.299Z,4.68
2022-10-19T05:11:28.197Z,8.27
2022-10-19T05:13:56.350Z,12.43
2022-10-19T05:16:26.014Z,6.97
2022-10-19T05:18:59.617Z,6.88
2022-10-19T05:21:29.676Z,8.25
2022-10-19T05:23:57.482Z,7.85
2022-10-19T05:26:26.366Z,9.20
2022-10-19T05:28:56.767Z,5.40
2022-10-19T05:31:26.950Z,9.70
2022-10-19T05:33:56.218Z,9.75
2022-10-19T05:36:29.435Z,8.45
2022-10-19T05:38:57.371Z,5.75
2022-10-19T05:41:25.434Z,4.15
2022-10-19T05:43:54.047Z,7.72
2022-10-19T05:46:20.730Z,3.58
2022-10-19T05:48:47.391Z,8.25
2022-10-19T05:51:16.980Z,3.97
2022-10-19T05:53:43.889Z,7.45
2022-10-19T05:56:15.309Z,6.00
2022-10-19T05:58:41.864Z,8.43
2022-10-19T06:01:09.385Z,6.38
2022-10-19T06:03:36.507Z,9.15
2022-10-19T06:06:05.051Z,9.98
2022-10-19T06:08:31.856Z,8.48
2022-10-19T06:11:10.255Z,7.00
2022-10-19T06:13:37.733Z,8.68
2022-10-19T06:16:05.447Z,8.13
2022-10-19T06:18:32.232Z,10.00
2022-10-19T06:21:03.919Z,8.30
2022-10-19T06:23:31.603Z,6.63
2022-10-19T06:25:58.477Z,9.00
2022-10-19T06:28:25.139Z,7.50
2022-10-19T06:30:51.713Z,8.50
2022-10-19T06:33:18.307Z,6.82
2022-10-19T06:35:44.761Z,6.35
2022-10-19T06:38:13.717Z,6.25
2022-10-19T06:40:40.342Z,6.32
2022-10-19T06:43:06.975Z,9.48
2022-10-19T06:45:36.010Z,8.02
2022-10-19T06:48:06.571Z,10.15
2022-10-19T06:50:34.243Z,7.50
2022-10-19T06:53:00.726Z,8.95
2022-10-19T06:55:27.372Z,7.40
2022-10-19T06:57:53.854Z,7.07
2022-10-19T07:00:20.496Z,3.78
2022-10-19T07:02:47.025Z,10.93
2022-10-19T07:05:13.594Z,7.43
2022-10-19T07:07:40.154Z,12.93
2022-10-19T07:10:08.092Z,8.75
2022-10-19T07:12:34.718Z,8.15
2022-10-19T07:15:01.347Z,9.40
2022-10-19T07:17:27.841Z,8.80
2022-10-19T07:19:54.980Z,11.27
2022-10-19T07:22:27.213Z,8.55
2022-10-19T07:24:54.675Z,7.57
2022-10-19T07:27:21.247Z,12.50
2022-10-19T07:29:47.781Z,8.45
2022-10-19T07:32:14.286Z,13.63
2022-10-19T07:34:40.761Z,8.38
2022-10-19T07:37:07.345Z,8.27
2022-10-19T07:39:33.908Z,11.18
2022-10-19T07:42:02.705Z,9.48
2022-10-19T07:44:29.249Z,7.30
2022-10-19T07:46:55.983Z,13.68
2022-10-19T07:49:24.220Z,10.63
2022-10-19T07:51:54.015Z,8.88
2022-10-19T07:54:21.461Z,6.70
2022-10-19T07:56:48.156Z,9.20
2022-10-19T07:59:16.246Z,10.82
2022-10-19T08:01:47.540Z,7.32
2022-10-19T08:04:55.528Z,8.63
2022-10-19T08:09:51.503Z,7.47
2022-10-19T08:14:42.259Z,8.30
2022-10-19T08:17:11.834Z,8.65
2022-10-19T08:19:43.351Z,8.98
2022-10-19T08:22:11.087Z,6.57
2022-10-19T08:24:37.863Z,5.07
2022-10-19T08:27:04.450Z,6.82
2022-10-19T08:29:31.740Z,8.75
2022-10-19T08:32:00.057Z,12.68
2022-10-19T08:34:26.636Z,11.45
2022-10-19T08:36:53.399Z,11.07
2022-10-19T08:39:19.849Z,10.30
2022-10-19T08:42:06.576Z,13.25
2022-10-19T08:45:04.202Z,10.85
2022-10-19T08:47:49.594Z,9.65
2022-10-19T08:50:27.016Z,7.85
2022-10-19T08:53:03.458Z,5.45
2022-10-19T08:55:53.242Z,10.35
2022-10-19T08:58:31.986Z,8.95
2022-10-19T09:01:35.354Z,10.43
2022-10-19T09:04:16.384Z,9.15
2022-10-19T09:07:03.966Z,5.93
2022-10-19T09:09:32.575Z,5.22
2022-10-19T09:12:05.909Z,5.32
2022-10-19T09:14:40.771Z,13.00
2022-10-19T09:17:12.846Z,8.52
2022-10-19T09:19:39.422Z,6.55
2022-10-19T09:22:19.883Z,11.30
2022-10-19T09:24:52.602Z,7.07
2022-10-19T09:27:21.948Z,5.20
2022-10-19T09:29:51.293Z,9.73
2022-10-19T09:32:23.260Z,6.40
2022-10-19T09:34:56.655Z,7.45
2022-10-19T09:37:26.641Z,11.15
2022-10-19T09:39:55.598Z,6.13
2022-10-19T09:42:33.113Z,11.80
2022-10-19T09:45:02.586Z,7.22
2022-10-19T09:47:38.176Z,5.32
2022-10-19T09:50:13.822Z,9.95
2022-10-19T09:52:42.684Z,5.68
2022-10-19T09:55:18.399Z,9.50
2022-10-19T09:57:50.184Z,10.73
2022-10-19T10:00:31.955Z,8.07
2022-10-19T10:02:58.654Z,6.88
2022-10-19T10:05:34.658Z,9.25
2022-10-19T10:08:01.833Z,9.05
2022-10-19T10:10:35.976Z,7.10
2022-10-19T10:13:03.386Z,5.45
2022-10-19T10:15:41.264Z,5.50
2022-10-19T10:18:14.523Z,6.97
2022-10-19T10:20:58.933Z,7.65
2022-10-19T10:23:31.054Z,5.75
2022-10-19T10:25:59.426Z,6.07
2022-10-19T10:28:28.205Z,3.42
2022-10-19T10:31:01.154Z,5.95
2022-10-19T10:33:45.998Z,4.65
2022-10-19T10:36:13.096Z,6.20
2022-10-19T10:38:45.717Z,5.07
2022-10-19T10:41:18.618Z,5.32
2022-10-19T10:43:57.501Z,4.95
2022-10-19T10:46:33.617Z,4.25
2022-10-19T10:49:04.080Z,6.35
2022-10-19T10:51:39.348Z,4.65
2022-10-19T10:54:16.882Z,4.72
2022-10-19T10:56:44.782Z,4.60
2022-10-19T10:59:19.474Z,4.00
2022-10-19T11:01:54.315Z,5.47
2022-10-19T11:04:26.146Z,4.80
2022-10-19T11:06:58.310Z,3.47
2022-10-19T11:09:38.394Z,4.32
2022-10-19T11:12:10.261Z,7.18
2022-10-19T11:14:47.660Z,3.03
2022-10-19T11:17:23.241Z,5.03
2022-10-19T11:19:53.599Z,4.53
2022-10-19T11:22:40.713Z,3.85
2022-10-19T11:25:18.156Z,3.88
2022-10-19T11:27:56.826Z,2.80
2022-10-19T11:30:25.004Z,4.50
2022-10-19T11:33:28.576Z,6.95
2022-10-19T11:36:03.877Z,5.75
2022-10-19T11:38:55.656Z,4.78
2022-10-19T11:41:31.604Z,3.05
2022-10-19T11:44:09.468Z,3.40
2022-10-19T11:46:39.459Z,4.30
2022-10-19T11:49:23.641Z,5.65
2022-10-19T11:51:59.045Z,4.53
2022-10-19T11:54:31.942Z,4.95
2022-10-19T11:57:05.553Z,3.78
2022-10-19T11:59:43.497Z,1.88
2022-10-19T12:04:48.575Z,3.67
2022-10-19T12:07:49.221Z,2.92
2022-10-19T12:10:28.751Z,2.95
2022-10-19T12:13:03.446Z,3.72
2022-10-19T12:15:36.139Z,3.53
2022-10-19T12:18:10.290Z,5.80
2022-10-19T12:20:46.128Z,3.65
2022-10-19T12:23:35.607Z,5.60
2022-10-19T12:26:05.693Z,2.97
2022-10-19T12:28:36.782Z,5.57
2022-10-19T12:31:05.866Z,4.80
2022-10-19T12:33:47.773Z,5.15
2022-10-19T12:36:33.097Z,2.80
2022-10-19T12:39:04.504Z,3.92
2022-10-19T12:41:52.384Z,2.25
2022-10-19T12:44:57.865Z,3.15
2022-10-19T12:47:25.540Z,1.48
2022-10-19T12:49:57.422Z,4.10
2022-10-19T12:52:42.420Z,3.80
2022-10-19T12:55:13.525Z,2.38
2022-10-19T12:57:40.757Z,3.80
2022-10-19T13:00:19.627Z,3.63
2022-10-19T13:02:48.435Z,3.75
2022-10-19T13:05:22.977Z,3.97
2022-10-19T13:10:26.116Z,8.07
2022-10-19T13:12:53.698Z,2.30
2022-10-19T13:15:35.116Z,3.35
2022-10-19T13:18:11.934Z,7.55
2022-10-19T13:20:38.379Z,1.25
2022-10-19T13:23:04.838Z,3.35
2022-10-19T13:25:35.753Z,1.67
2022-10-19T13:28:12.613Z,2.72
2022-10-19T13:30:39.166Z,3.70
2022-10-19T13:33:33.217Z,3.13
2022-10-19T13:35:59.749Z,1.20
2022-10-19T13:39:06.021Z,1.08
2022-10-19T13:41:38.547Z,2.63
2022-10-19T13:44:15.287Z,1.77
2022-10-19T13:46:47.781Z,2.40
2022-10-19T13:49:20.469Z,4.47
2022-10-19T13:52:03.515Z,1.00
2022-10-19T13:54:48.988Z,3.53
2022-10-19T13:57:32.019Z,1.77
2022-10-19T14:00:18.087Z,0.93
2022-10-19T14:03:05.366Z,0.80
2022-10-19T14:06:19.521Z,2.88
2022-10-19T14:08:49.594Z,1.95
2022-10-19T14:11:26.174Z,3.25
2022-10-19T14:14:11.007Z,2.22
2022-10-19T14:16:59.700Z,1.20
2022-10-19T14:19:44.433Z,1.40
2022-10-19T14:22:26.492Z,1.20
2022-10-19T14:25:01.662Z,2.40
2022-10-19T14:27:28.456Z,2.70
2022-10-19T14:29:55.062Z,4.32
2022-10-19T14:32:27.933Z,0.68
2022-10-19T14:35:00.043Z,0.98
2022-10-19T14:37:27.294Z,0.77
2022-10-19T14:40:08.495Z,3.03
2022-10-19T14:42:45.041Z,0.95
2022-10-19T14:45:23.824Z,0.95
2022-10-19T14:47:55.124Z,3.03
2022-10-19T14:50:27.039Z,2.03
2022-10-19T14:53:01.033Z,0.93
2022-10-19T14:55:34.463Z,0.80
2022-10-19T14:58:02.021Z,0.90
2022-10-19T15:00:32.161Z,1.65
2022-10-19T15:03:07.139Z,0.93
2022-10-19T15:05:37.765Z,1.55
2022-10-19T15:08:11.650Z,1.20
2022-10-19T15:10:45.688Z,1.23
2022-10-19T15:13:24.980Z,0.57
2022-10-19T15:15:53.554Z,1.65
2022-10-19T15:18:43.961Z,0.50
2022-10-19T15:21:17.809Z,1.23
2022-10-19T15:23:46.399Z,1.05
2022-10-19T15:26:18.475Z,0.93
2022-10-19T15:28:47.553Z,1.20
2022-10-19T15:31:21.445Z,1.83
2022-10-19T15:33:52.599Z,1.00
2022-10-19T15:36:29.367Z,0.52
2022-10-19T15:39:18.330Z,1.42
2022-10-19T15:41:51.482Z,1.48
2022-10-19T15:44:42.376Z,0.93
2022-10-19T15:47:14.847Z,2.63
2022-10-19T15:49:41.353Z,1.60
2022-10-19T15:52:25.177Z,1.70
2022-10-19T15:54:56.643Z,1.85
2022-10-19T15:57:34.171Z,1.08
2022-10-19T16:00:21.512Z,2.10
2022-10-19T16:02:47.997Z,3.67
2022-10-19T16:05:14.501Z,4.35
2022-10-19T16:07:41.923Z,2.78
2022-10-19T16:10:15.139Z,1.25
2022-10-19T16:12:41.669Z,2.60
2022-10-19T16:15:12.539Z,2.65
2022-10-19T16:17:39.796Z,3.63
2022-10-19T16:20:06.650Z,4.32
2022-10-19T16:22:33.476Z,2.35
2022-10-19T16:24:59.966Z,5.40
2022-10-19T16:27:26.504Z,4.60
2022-10-19T16:29:53.031Z,4.75
2022-10-19T16:32:19.496Z,4.63
2022-10-19T16:34:46.512Z,6.72
2022-10-19T16:37:13.016Z,4.50
2022-10-19T16:39:39.505Z,5.70
2022-10-19T16:42:06.010Z,3.17
2022-10-19T16:44:32.478Z,3.22
2022-10-19T16:46:59.800Z,4.45
2022-10-19T16:49:26.344Z,5.47
2022-10-19T16:51:56.276Z,9.00
2022-10-19T16:54:26.484Z,9.52
2022-10-19T16:56:53.323Z,11.05
2022-10-19T16:59:19.989Z,12.80
2022-10-19T17:01:47.037Z,8.02
2022-10-19T17:04:15.735Z,12.10
2022-10-19T17:06:42.411Z,10.88
2022-10-19T17:11:55.984Z,12.77
2022-10-19T17:14:22.479Z,10.35
2022-10-19T17:16:49.017Z,10.50
2022-10-19T17:19:15.723Z,8.32
2022-10-19T17:21:42.673Z,6.25
2022-10-19T17:24:20.225Z,18.20
2022-10-19T17:26:48.791Z,7.07
2022-10-19T17:29:15.315Z,6.18
2022-10-19T17:31:42.957Z,7.00
2022-10-19T17:34:10.552Z,10.30
2022-10-19T17:36:44.192Z,5.55
2022-10-19T17:39:17.937Z,7.40
2022-10-19T17:41:49.330Z,5.45
2022-10-19T17:44:17.581Z,5.07
2022-10-19T17:46:44.850Z,4.93
2022-10-19T17:49:12.447Z,4.88
2022-10-19T17:51:39.791Z,3.50
2022-10-19T17:54:09.401Z,5.82
2022-10-19T17:56:36.754Z,5.45
2022-10-19T17:59:04.569Z,5.15
2022-10-19T18:01:31.430Z,4.07
2022-10-19T18:03:57.997Z,3.53
2022-10-19T18:06:29.528Z,8.18
2022-10-19T18:11:45.043Z,5.35
2022-10-19T18:14:13.044Z,4.30
2022-10-19T18:16:45.833Z,4.30
2022-10-19T18:19:14.821Z,5.47
2022-10-19T18:21:43.389Z,5.13
2022-10-19T18:24:15.369Z,4.43
2022-10-19T18:26:42.573Z,6.28
2022-10-19T18:29:24.292Z,8.18
2022-10-19T18:31:52.422Z,6.22
2022-10-19T18:34:22.495Z,4.55
2022-10-19T18:36:50.113Z,5.57
2022-10-19T18:39:17.445Z,9.40
2022-10-19T18:41:44.004Z,14.20
2022-10-19T18:44:13.865Z,15.63
2022-10-19T18:46:40.970Z,9.38
2022-10-19T18:49:08.756Z,7.05
2022-10-19T18:51:35.966Z,6.05
2022-10-19T18:54:02.547Z,6.45
2022-10-19T18:56:29.626Z,26.25
2022-10-19T18:58:57.124Z,12.52
2022-10-19T19:01:29.208Z,6.82
2022-10-19T19:04:04.332Z,8.02
2022-10-19T19:06:31.646Z,11.65
2022-10-19T19:08:59.884Z,9.68
2022-10-19T19:11:35.843Z,16.48
2022-10-19T19:14:20.920Z,20.25
2022-10-19T19:16:47.658Z,19.92
2022-10-19T19:19:15.977Z,15.68
2022-10-19T19:21:44.328Z,22.33
2022-10-19T19:24:16.749Z,13.70
2022-10-19T19:26:48.288Z,7.80
2022-10-19T19:29:15.591Z,11.90
2022-10-19T19:31:42.176Z,11.93
2022-10-19T19:34:09.491Z,12.63
2022-10-19T19:36:38.180Z,10.10
2022-10-19T19:39:05.201Z,7.32
2022-10-19T19:41:34.006Z,8.45
2022-10-19T19:44:00.604Z,8.60
2022-10-19T19:46:27.184Z,7.55
2022-10-19T19:49:00.771Z,5.70
2022-10-19T19:51:28.916Z,7.70
2022-10-19T19:53:56.127Z,4.32
2022-10-19T19:56:23.495Z,9.65
2022-10-19T19:58:54.624Z,5.45
2022-10-19T20:01:21.762Z,10.02
2022-10-19T20:03:49.000Z,5.13
2022-10-19T20:06:22.081Z,5.68
2022-10-19T20:08:51.895Z,4.82
2022-10-19T20:11:18.565Z,3.42
2022-10-19T20:13:45.855Z,4.88
2022-10-19T20:16:18.465Z,3.20
2022-10-19T20:18:47.925Z,3.45
2022-10-19T20:21:15.336Z,3.70
2022-10-19T20:23:46.395Z,4.53
2022-10-19T20:26:21.225Z,6.22
2022-10-19T20:28:48.224Z,3.85
2022-10-19T20:31:15.218Z,3.75
2022-10-19T20:33:43.295Z,3.85
2022-10-19T20:36:11.388Z,2.22
2022-10-19T20:38:39.245Z,5.50
2022-10-19T20:41:08.421Z,4.82
2022-10-19T20:43:37.193Z,3.17
2022-10-19T20:46:22.258Z,3.33
2022-10-19T20:48:50.155Z,2.53
2022-10-19T20:51:19.622Z,5.10
2022-10-19T20:53:48.615Z,2.42
2022-10-19T20:56:21.656Z,2.75
2022-10-19T20:58:50.327Z,3.97
2022-10-19T21:01:19.006Z,3.08
2022-10-19T21:04:00.750Z,4.95
2022-10-19T21:06:29.337Z,2.75
2022-10-19T21:08:56.160Z,2.13
2022-10-19T21:11:31.718Z,3.22
2022-10-19T21:14:03.797Z,2.93
2022-10-19T21:16:33.636Z,6.28
2022-10-19T21:19:02.132Z,2.13
2022-10-19T21:21:35.171Z,3.10
2022-10-19T21:24:07.421Z,1.65
2022-10-19T21:26:35.571Z,1.88
2022-10-19T21:29:03.068Z,3.75
2022-10-19T21:31:30.697Z,2.00
2022-10-19T21:33:57.665Z,2.67
2022-10-19T21:36:27.662Z,2.75
2022-10-19T21:38:54.194Z,2.70
2022-10-19T21:41:25.394Z,2.40
2022-10-19T21:43:54.136Z,2.13
2022-10-19T21:46:22.686Z,2.22
2022-10-19T21:48:49.571Z,3.17
2022-10-19T21:51:18.876Z,2.75
2022-10-19T21:53:46.587Z,2.50
2022-10-19T21:56:14.286Z,1.63
2022-10-19T21:58:45.600Z,2.40
2022-10-19T22:01:12.793Z,1.77
2022-10-19T22:03:39.414Z,2.45
2022-10-19T22:06:06.510Z,2.05
2022-10-19T22:08:33.297Z,3.42
2022-10-19T22:11:06.270Z,1.45
2022-10-19T22:13:33.825Z,3.95
2022-10-19T22:16:05.014Z,2.67
2022-10-19T22:18:31.935Z,2.35
2022-10-19T22:21:03.204Z,2.28
2022-10-19T22:23:29.849Z,2.58
2022-10-19T22:26:03.969Z,2.80
2022-10-19T22:28:36.665Z,3.92
2022-10-19T22:31:09.908Z,3.22
2022-10-19T22:33:39.492Z,4.50
2022-10-19T22:36:12.390Z,3.45
2022-10-19T22:38:44.078Z,4.28
2022-10-19T22:41:12.629Z,2.25
2022-10-19T22:43:40.481Z,1.90
2022-10-19T22:46:12.029Z,3.25
2022-10-19T22:48:42.105Z,1.85
2022-10-19T22:51:12.906Z,3.08
2022-10-19T22:53:45.408Z,3.78
2022-10-19T22:56:21.645Z,1.92
2022-10-19T22:59:03.218Z,3.33
2022-10-19T23:01:34.418Z,3.65
2022-10-19T23:04:05.334Z,2.72
2022-10-19T23:06:42.801Z,5.10
2022-10-19T23:09:16.523Z,2.30
2022-10-19T23:11:46.948Z,2.38
2022-10-19T23:14:15.526Z,3.50
2022-10-19T23:16:42.065Z,2.55
2022-10-19T23:19:08.595Z,2.03
2022-10-19T23:21:35.177Z,1.73
2022-10-19T23:24:01.711Z,3.67
2022-10-19T23:26:28.393Z,2.72
2022-10-19T23:28:54.940Z,2.15
2022-10-19T23:31:24.794Z,4.15
2022-10-19T23:33:52.223Z,6.95
2022-10-19T23:36:25.070Z,5.18
2022-10-19T23:38:52.871Z,3.17
2022-10-19T23:41:20.135Z,3.35
2022-10-19T23:43:46.761Z,3.15
2022-10-19T23:46:14.104Z,3.08
2022-10-19T23:48:41.891Z,3.83
2022-10-19T23:51:10.772Z,2.03
2022-10-19T23:53:41.066Z,3.30
2022-10-19T23:56:19.754Z,2.90
2022-10-19T23:58:46.951Z,4.38
